createdAt,value
2022-08-21T00:01:39.412Z,4.50
2022-08-21T00:04:10.975Z,4.40
2022-08-21T00:06:41.715Z,4.07
2022-08-21T00:09:09.835Z,4.03
2022-08-21T00:11:38.927Z,4.77
2022-08-21T00:14:07.302Z,4.67
2022-08-21T00:16:34.593Z,4.80
2022-08-21T00:19:01.680Z,5.03
2022-08-21T00:21:28.376Z,4.60
2022-08-21T00:23:55.061Z,4.67
2022-08-21T00:26:21.695Z,4.30
2022-08-21T00:28:49.799Z,4.33
2022-08-21T00:31:17.404Z,4.53
2022-08-21T00:33:44.510Z,4.77
2022-08-21T00:36:11.592Z,4.83
2022-08-21T00:38:38.226Z,4.43
2022-08-21T00:41:37.910Z,4.20
2022-08-21T00:43:55.335Z,5.37
2022-08-21T00:46:22.546Z,4.67
2022-08-21T00:48:58.909Z,4.97
2022-08-21T00:51:48.678Z,4.90
2022-08-21T00:54:18.338Z,5.37
2022-08-21T00:56:48.836Z,4.70
2022-08-21T00:59:17.814Z,4.90
2022-08-21T01:01:44.712Z,5.13
2022-08-21T01:04:12.452Z,5.00
2022-08-21T01:06:39.108Z,4.73
2022-08-21T01:09:05.872Z,5.03
2022-08-21T01:11:32.522Z,5.77
2022-08-21T01:13:59.552Z,4.90
2022-08-21T01:16:26.398Z,4.80
2022-08-21T01:18:53.216Z,4.90
2022-08-21T01:21:27.979Z,4.53
2022-08-21T01:23:57.210Z,5.03
2022-08-21T01:26:34.510Z,5.33
2022-08-21T01:29:08.025Z,4.43
2022-08-21T01:31:34.920Z,4.90
2022-08-21T01:34:01.782Z,4.67
2022-08-21T01:36:28.848Z,4.87
2022-08-21T01:38:56.508Z,5.00
2022-08-21T01:41:23.172Z,4.90
2022-08-21T01:43:50.529Z,4.93
2022-08-21T01:46:17.295Z,4.43
2022-08-21T01:48:44.454Z,4.53
2022-08-21T01:51:13.162Z,4.60
2022-08-21T01:53:40.064Z,4.73
2022-08-21T01:56:12.433Z,4.17
2022-08-21T01:58:41.211Z,4.37
2022-08-21T02:01:07.938Z,4.37
2022-08-21T02:03:35.845Z,4.33
2022-08-21T02:06:05.237Z,4.70
2022-08-21T02:08:32.752Z,4.50
2022-08-21T02:11:00.087Z,4.97
2022-08-21T02:13:27.126Z,4.97
2022-08-21T02:15:53.832Z,4.77
2022-08-21T02:18:20.508Z,4.13
2022-08-21T02:20:55.729Z,4.23
2022-08-21T02:23:26.916Z,4.07
2022-08-21T02:25:55.836Z,4.20
2022-08-21T02:28:22.706Z,4.33
2022-08-21T02:30:50.391Z,4.27
2022-08-21T02:33:17.946Z,4.00
2022-08-21T02:35:46.598Z,4.33
2022-08-21T02:38:18.411Z,3.80
2022-08-21T02:40:47.957Z,4.07
2022-08-21T02:43:16.239Z,3.87
2022-08-21T02:45:44.737Z,4.00
2022-08-21T02:48:14.690Z,4.13
2022-08-21T02:50:47.519Z,3.73
2022-08-21T02:53:17.193Z,3.70
2022-08-21T02:55:47.359Z,4.10
2022-08-21T02:58:15.834Z,3.63
2022-08-21T03:00:44.568Z,4.00
2022-08-21T03:03:11.503Z,3.50
2022-08-21T03:05:38.587Z,3.50
2022-08-21T03:08:10.375Z,3.97
2022-08-21T03:10:40.208Z,3.63
2022-08-21T03:13:07.560Z,3.50
2022-08-21T03:15:34.524Z,3.83
2022-08-21T03:18:02.417Z,3.33
2022-08-21T03:20:29.881Z,3.40
2022-08-21T03:22:56.638Z,3.83
2022-08-21T03:25:33.720Z,3.57
2022-08-21T03:28:12.969Z,3.87
2022-08-21T03:30:42.471Z,3.70
2022-08-21T03:33:12.205Z,3.30
2022-08-21T03:35:39.906Z,3.67
2022-08-21T03:38:06.565Z,3.60
2022-08-21T03:40:33.214Z,3.90
2022-08-21T03:42:59.887Z,3.80
2022-08-21T03:45:27.081Z,3.83
2022-08-21T03:47:53.849Z,3.60
2022-08-21T03:50:20.581Z,3.63
2022-08-21T03:52:47.196Z,3.70
2022-08-21T03:55:13.861Z,3.80
2022-08-21T03:57:40.559Z,4.30
2022-08-21T04:00:10.731Z,3.40
2022-08-21T04:02:37.340Z,3.30
2022-08-21T04:05:04.456Z,3.83
2022-08-21T04:07:31.171Z,4.03
2022-08-21T04:09:58.116Z,3.40
2022-08-21T04:12:24.796Z,4.00
2022-08-21T04:14:54.482Z,3.90
2022-08-21T04:17:21.144Z,4.07
2022-08-21T04:19:53.100Z,3.20
2022-08-21T04:22:20.369Z,4.10
2022-08-21T04:24:47.026Z,3.60
2022-08-21T04:27:13.660Z,3.73
2022-08-21T04:29:40.327Z,4.07
2022-08-21T04:32:07.316Z,3.90
2022-08-21T04:34:34.076Z,3.90
2022-08-21T04:37:00.689Z,3.83
2022-08-21T04:39:29.464Z,4.00
2022-08-21T04:41:56.854Z,3.43
2022-08-21T04:44:24.490Z,4.57
2022-08-21T04:46:51.115Z,3.70
2022-08-21T04:49:18.259Z,3.43
2022-08-21T04:51:45.908Z,3.40
2022-08-21T04:54:19.843Z,3.67
2022-08-21T04:56:57.140Z,3.43
2022-08-21T04:59:31.933Z,3.63
2022-08-21T05:02:00.247Z,3.77
2022-08-21T05:04:32.119Z,3.67
2022-08-21T05:07:02.856Z,3.13
2022-08-21T05:09:30.095Z,3.77
2022-08-21T05:11:57.342Z,3.63
2022-08-21T05:14:24.209Z,3.37
2022-08-21T05:16:50.844Z,3.53
2022-08-21T05:19:17.473Z,3.63
2022-08-21T05:21:46.054Z,3.73
2022-08-21T05:24:12.737Z,3.73
2022-08-21T05:26:46.065Z,3.57
2022-08-21T05:29:15.651Z,3.90
2022-08-21T05:31:43.765Z,3.33
2022-08-21T05:34:10.451Z,3.77
2022-08-21T05:36:37.133Z,3.77
2022-08-21T05:39:04.329Z,3.03
2022-08-21T05:41:31.027Z,3.37
2022-08-21T05:44:00.995Z,3.30
2022-08-21T05:46:27.848Z,3.70
2022-08-21T05:48:54.611Z,3.70
2022-08-21T05:51:21.355Z,3.53
2022-08-21T05:53:48.361Z,3.63
2022-08-21T05:56:15.293Z,3.27
2022-08-21T05:58:42.500Z,3.80
2022-08-21T06:01:10.012Z,3.60
2022-08-21T06:03:40.397Z,3.10
2022-08-21T06:06:07.416Z,3.57
2022-08-21T06:08:35.079Z,3.20
2022-08-21T06:11:04.010Z,3.40
2022-08-21T06:13:30.656Z,3.47
2022-08-21T06:16:15.844Z,3.10
2022-08-21T06:18:44.993Z,3.40
2022-08-21T06:21:12.579Z,3.00
2022-08-21T06:23:39.299Z,3.23
2022-08-21T06:26:08.076Z,3.50
2022-08-21T06:28:35.723Z,2.87
2022-08-21T06:31:02.495Z,3.50
2022-08-21T06:33:32.477Z,3.50
2022-08-21T06:35:59.511Z,3.43
2022-08-21T06:38:26.145Z,3.03
2022-08-21T06:40:53.221Z,3.43
2022-08-21T06:43:19.842Z,2.97
2022-08-21T06:45:46.518Z,3.17
2022-08-21T06:48:18.347Z,3.67
2022-08-21T06:50:46.303Z,3.30
2022-08-21T06:53:14.836Z,2.97
2022-08-21T06:55:42.954Z,3.20
2022-08-21T06:58:10.935Z,2.87
2022-08-21T07:00:41.188Z,2.93
2022-08-21T07:03:08.254Z,3.03
2022-08-21T07:05:34.961Z,3.20
2022-08-21T07:08:01.577Z,3.60
2022-08-21T07:10:28.652Z,3.13
2022-08-21T07:12:59.528Z,2.93
2022-08-21T07:15:29.184Z,2.80
2022-08-21T07:17:58.172Z,2.53
2022-08-21T07:20:24.869Z,3.00
2022-08-21T07:22:51.990Z,2.90
2022-08-21T07:25:18.719Z,3.40
2022-08-21T07:27:45.378Z,2.77
2022-08-21T07:30:12.307Z,3.50
2022-08-21T07:32:39.001Z,2.83
2022-08-21T07:35:05.965Z,3.37
2022-08-21T07:37:32.605Z,3.03
2022-08-21T07:39:59.278Z,3.00
2022-08-21T07:42:26.034Z,2.93
2022-08-21T07:44:53.177Z,2.77
2022-08-21T07:47:29.386Z,2.90
2022-08-21T07:50:09.496Z,3.17
2022-08-21T07:52:36.308Z,3.10
2022-08-21T07:55:06.434Z,2.77
2022-08-21T07:57:33.852Z,2.57
2022-08-21T08:00:00.588Z,3.37
2022-08-21T08:02:29.652Z,2.90
2022-08-21T08:05:03.552Z,3.30
2022-08-21T08:07:30.299Z,2.50
2022-08-21T08:09:56.990Z,3.00
2022-08-21T08:12:23.633Z,2.80
2022-08-21T08:14:50.395Z,2.90
2022-08-21T08:17:17.082Z,2.60
2022-08-21T08:19:43.759Z,3.00
2022-08-21T08:22:20.130Z,3.07
2022-08-21T08:24:48.065Z,3.10
2022-08-21T08:27:15.701Z,3.13
2022-08-21T08:29:42.491Z,2.80
2022-08-21T08:32:09.475Z,2.90
2022-08-21T08:34:38.164Z,3.13
2022-08-21T08:37:05.613Z,2.83
2022-08-21T08:39:34.869Z,2.77
2022-08-21T08:42:33.181Z,2.70
2022-08-21T08:45:13.337Z,2.70
2022-08-21T08:47:46.400Z,2.63
2022-08-21T08:50:24.575Z,2.93
2022-08-21T08:53:16.648Z,2.97
2022-08-21T08:55:45.537Z,3.20
2022-08-21T08:58:25.806Z,3.23
2022-08-21T09:00:56.030Z,3.17
2022-08-21T09:03:24.662Z,3.83
2022-08-21T09:06:04.095Z,3.60
2022-08-21T09:08:45.704Z,2.63
2022-08-21T09:11:59.462Z,3.57
2022-08-21T09:14:51.193Z,3.07
2022-08-21T09:17:45.205Z,3.33
2022-08-21T09:20:50.683Z,3.37
2022-08-21T09:23:47.694Z,3.93
2022-08-21T09:26:20.797Z,3.33
2022-08-21T09:28:57.025Z,3.30
2022-08-21T09:31:31.419Z,3.97
2022-08-21T09:34:00.020Z,3.50
2022-08-21T09:36:40.131Z,3.60
2022-08-21T09:39:07.783Z,4.37
2022-08-21T09:41:36.452Z,2.33
2022-08-21T09:44:05.142Z,3.90
2022-08-21T09:46:32.134Z,4.03
2022-08-21T09:49:01.995Z,4.27
2022-08-21T09:51:37.764Z,3.70
2022-08-21T09:54:07.755Z,2.97
2022-08-21T09:56:54.510Z,4.00
2022-08-21T09:59:36.861Z,3.80
2022-08-21T10:02:25.218Z,3.17
2022-08-21T10:05:01.811Z,4.30
2022-08-21T10:07:33.599Z,4.07
2022-08-21T10:10:14.517Z,4.83
2022-08-21T10:13:02.887Z,3.67
2022-08-21T10:15:49.156Z,3.40
2022-08-21T10:18:22.822Z,4.37
2022-08-21T10:21:28.409Z,3.53
2022-08-21T10:24:11.189Z,3.60
2022-08-21T10:26:58.136Z,3.33
2022-08-21T10:29:44.964Z,3.00
2022-08-21T10:32:25.989Z,3.57
2022-08-21T10:35:14.327Z,3.90
2022-08-21T10:38:09.109Z,3.43
2022-08-21T10:40:58.479Z,3.77
2022-08-21T10:43:45.953Z,3.00
2022-08-21T10:46:48.353Z,3.70
2022-08-21T10:49:23.059Z,3.73
2022-08-21T10:52:04.269Z,4.10
2022-08-21T10:54:51.780Z,3.50
2022-08-21T10:57:43.477Z,3.10
2022-08-21T11:00:15.289Z,3.30
2022-08-21T11:02:51.980Z,3.20
2022-08-21T11:05:28.792Z,3.40
2022-08-21T11:08:10.196Z,3.37
2022-08-21T11:10:58.110Z,3.40
2022-08-21T11:13:39.460Z,3.60
2022-08-21T11:16:19.534Z,3.37
2022-08-21T11:19:01.827Z,3.70
2022-08-21T11:21:38.736Z,3.03
2022-08-21T11:24:18.655Z,3.10
2022-08-21T11:27:07.651Z,2.80
2022-08-21T11:29:38.918Z,3.17
2022-08-21T11:32:25.736Z,3.33
2022-08-21T11:35:03.600Z,2.80
2022-08-21T11:37:58.143Z,4.93
2022-08-21T11:40:49.895Z,3.87
2022-08-21T11:43:40.748Z,2.73
2022-08-21T11:46:36.296Z,2.87
2022-08-21T11:49:24.020Z,3.30
2022-08-21T11:52:15.766Z,4.33
2022-08-21T11:54:48.280Z,4.60
2022-08-21T11:57:20.721Z,2.73
2022-08-21T12:00:19.771Z,3.03
2022-08-21T12:02:52.032Z,3.23
2022-08-21T12:05:34.048Z,3.17
2022-08-21T12:08:05.673Z,3.23
2022-08-21T12:10:36.677Z,2.80
2022-08-21T12:13:22.175Z,2.60
2022-08-21T12:16:16.295Z,2.50
2022-08-21T12:18:44.165Z,3.27
2022-08-21T12:21:28.812Z,3.13
2022-08-21T12:24:13.771Z,2.83
2022-08-21T12:26:55.760Z,3.10
2022-08-21T12:29:32.502Z,4.50
2022-08-21T12:32:19.335Z,2.97
2022-08-21T12:34:54.695Z,3.13
2022-08-21T12:38:07.279Z,2.77
2022-08-21T12:40:49.893Z,2.60
2022-08-21T12:43:21.330Z,2.43
2022-08-21T12:45:51.894Z,3.03
2022-08-21T12:48:36.768Z,3.30
2022-08-21T12:51:13.010Z,2.80
2022-08-21T12:53:52.063Z,3.00
2022-08-21T12:56:21.837Z,4.53
2022-08-21T12:58:57.287Z,2.70
2022-08-21T13:01:31.449Z,2.50
2022-08-21T13:04:21.239Z,2.67
2022-08-21T13:06:52.747Z,2.33
2022-08-21T13:09:26.768Z,2.43
2022-08-21T13:11:54.364Z,2.30
2022-08-21T13:14:31.296Z,3.83
2022-08-21T13:16:59.707Z,3.70
2022-08-21T13:19:27.381Z,4.80
2022-08-21T13:21:54.384Z,3.00
2022-08-21T13:24:43.081Z,4.27
2022-08-21T13:27:23.120Z,3.03
2022-08-21T13:30:01.518Z,2.73
2022-08-21T13:32:32.085Z,2.73
2022-08-21T13:35:00.826Z,2.60
2022-08-21T13:37:29.890Z,3.70
2022-08-21T13:39:56.682Z,3.57
2022-08-21T13:42:25.403Z,3.33
2022-08-21T13:44:54.424Z,2.60
2022-08-21T13:47:21.668Z,3.00
2022-08-21T13:49:57.077Z,2.33
2022-08-21T13:52:27.991Z,2.73
2022-08-21T13:55:00.668Z,3.40
2022-08-21T13:57:30.721Z,3.30
2022-08-21T14:00:14.707Z,2.50
2022-08-21T14:02:45.189Z,2.20
2022-08-21T14:05:28.067Z,2.23
2022-08-21T14:08:12.763Z,2.70
2022-08-21T14:10:57.224Z,2.63
2022-08-21T14:13:59.026Z,2.47
2022-08-21T14:16:47.445Z,2.40
2022-08-21T14:19:26.746Z,2.90
2022-08-21T14:21:55.483Z,2.70
2022-08-21T14:24:24.972Z,2.63
2022-08-21T14:27:08.321Z,2.77
2022-08-21T14:29:42.090Z,2.30
2022-08-21T14:32:37.237Z,2.33
2022-08-21T14:35:04.101Z,2.60
2022-08-21T14:37:30.764Z,2.70
2022-08-21T14:39:57.457Z,1.93
2022-08-21T14:42:25.155Z,2.33
2022-08-21T14:44:52.411Z,2.40
2022-08-21T14:47:19.043Z,3.47
2022-08-21T14:49:45.744Z,3.30
2022-08-21T14:52:12.368Z,2.83
2022-08-21T14:54:39.064Z,2.90
2022-08-21T14:57:11.303Z,4.00
2022-08-21T14:59:38.559Z,3.43
2022-08-21T15:02:05.685Z,3.10
2022-08-21T15:04:33.802Z,3.00
2022-08-21T15:07:00.782Z,2.57
2022-08-21T15:09:27.663Z,2.57
2022-08-21T15:11:57.816Z,2.80
2022-08-21T15:14:27.629Z,2.57
2022-08-21T15:16:54.395Z,2.63
2022-08-21T15:19:21.083Z,3.23
2022-08-21T15:21:47.843Z,2.70
2022-08-21T15:24:14.477Z,2.80
2022-08-21T15:26:41.162Z,2.70
2022-08-21T15:29:09.427Z,2.50
2022-08-21T15:31:37.373Z,2.83
2022-08-21T15:34:04.181Z,2.63
2022-08-21T15:36:30.800Z,3.47
2022-08-21T15:38:57.431Z,3.83
2022-08-21T15:41:24.093Z,3.43
2022-08-21T15:43:53.823Z,2.27
2022-08-21T15:46:21.660Z,2.50
2022-08-21T15:48:48.730Z,3.30
2022-08-21T15:51:17.581Z,2.40
2022-08-21T15:53:45.509Z,2.53
2022-08-21T15:56:23.688Z,2.40
2022-08-21T15:58:52.344Z,2.73
2022-08-21T16:01:20.144Z,2.63
2022-08-21T16:03:50.322Z,2.13
2022-08-21T16:06:17.084Z,2.57
2022-08-21T16:08:43.760Z,2.50
2022-08-21T16:11:14.147Z,2.27
2022-08-21T16:13:46.095Z,2.30
2022-08-21T16:16:16.037Z,2.27
2022-08-21T16:18:42.925Z,3.17
2022-08-21T16:21:09.779Z,3.20
2022-08-21T16:23:38.233Z,2.50
2022-08-21T16:26:05.803Z,2.30
2022-08-21T16:28:38.604Z,2.13
2022-08-21T16:31:05.218Z,2.43
2022-08-21T16:33:44.967Z,2.50
2022-08-21T16:36:12.375Z,2.60
2022-08-21T16:38:39.530Z,3.40
2022-08-21T16:41:09.887Z,2.80
2022-08-21T16:43:41.602Z,3.03
2022-08-21T16:46:11.405Z,2.90
2022-08-21T16:48:38.987Z,3.60
2022-08-21T16:51:06.429Z,2.57
2022-08-21T16:53:33.198Z,2.50
2022-08-21T16:56:00.067Z,3.07
2022-08-21T16:58:31.109Z,2.60
2022-08-21T17:00:59.515Z,3.17
2022-08-21T17:03:32.297Z,2.90
2022-08-21T17:05:58.955Z,2.73
2022-08-21T17:08:25.626Z,2.80
2022-08-21T17:10:53.153Z,2.70
2022-08-21T17:13:20.216Z,2.30
2022-08-21T17:15:49.019Z,2.17
2022-08-21T17:18:18.820Z,2.63
2022-08-21T17:20:45.821Z,2.50
2022-08-21T17:23:12.458Z,2.30
2022-08-21T17:25:43.347Z,2.30
2022-08-21T17:28:16.798Z,2.43
2022-08-21T17:30:46.282Z,2.37
2022-08-21T17:33:18.289Z,2.40
2022-08-21T17:35:45.684Z,2.30
2022-08-21T17:38:14.779Z,2.43
2022-08-21T17:40:42.487Z,2.90
2022-08-21T17:43:13.042Z,2.60
2022-08-21T17:45:41.182Z,2.23
2022-08-21T17:48:08.347Z,2.27
2022-08-21T17:50:36.345Z,2.67
2022-08-21T17:53:03.366Z,2.37
2022-08-21T17:55:30.727Z,2.43
2022-08-21T17:57:58.544Z,2.50
2022-08-21T18:00:26.368Z,2.87
2022-08-21T18:03:14.754Z,2.70
2022-08-21T18:05:43.264Z,2.97
2022-08-21T18:08:09.970Z,2.40
2022-08-21T18:10:38.637Z,2.93
2022-08-21T18:13:08.139Z,3.10
2022-08-21T18:15:35.104Z,2.90
2022-08-21T18:18:02.741Z,2.77
2022-08-21T18:20:29.536Z,3.33
2022-08-21T18:22:56.439Z,2.70
2022-08-21T18:25:23.339Z,3.20
2022-08-21T18:27:50.738Z,2.50
2022-08-21T18:30:20.051Z,3.07
2022-08-21T18:32:47.410Z,2.37
2022-08-21T18:35:16.509Z,3.77
2022-08-21T18:37:44.313Z,2.83
2022-08-21T18:40:11.306Z,3.10
2022-08-21T18:42:49.703Z,3.37
2022-08-21T18:45:23.033Z,3.57
2022-08-21T18:47:52.380Z,2.70
2022-08-21T18:50:21.513Z,2.90
2022-08-21T18:52:52.732Z,3.80
2022-08-21T18:55:21.631Z,2.83
2022-08-21T18:57:48.519Z,3.87
2022-08-21T19:00:19.231Z,3.77
2022-08-21T19:02:48.011Z,3.73
2022-08-21T19:05:17.658Z,3.73
2022-08-21T19:07:44.394Z,2.60
2022-08-21T19:10:29.286Z,4.00
2022-08-21T19:12:59.609Z,3.87
2022-08-21T19:15:26.956Z,4.10
2022-08-21T19:17:55.822Z,3.93
2022-08-21T19:20:29.821Z,4.60
2022-08-21T19:22:56.922Z,3.83
2022-08-21T19:25:32.945Z,3.83
2022-08-21T19:28:11.471Z,3.93
2022-08-21T19:30:47.898Z,3.30
2022-08-21T19:33:23.846Z,3.70
2022-08-21T19:35:52.420Z,3.40
2022-08-21T19:38:19.843Z,3.67
2022-08-21T19:40:46.814Z,3.83
2022-08-21T19:43:14.181Z,3.40
2022-08-21T19:45:41.229Z,4.17
2022-08-21T19:48:08.409Z,3.37
2022-08-21T19:50:35.157Z,4.00
2022-08-21T19:53:02.298Z,3.50
2022-08-21T19:55:29.368Z,4.47
2022-08-21T19:57:56.233Z,3.50
2022-08-21T20:00:24.031Z,4.20
2022-08-21T20:02:52.551Z,3.83
2022-08-21T20:05:19.357Z,3.60
2022-08-21T20:07:48.299Z,3.90
2022-08-21T20:10:15.053Z,4.03
2022-08-21T20:12:42.754Z,4.10
2022-08-21T20:15:10.312Z,3.37
2022-08-21T20:17:38.712Z,3.90
2022-08-21T20:20:05.935Z,3.83
2022-08-21T20:22:32.677Z,4.17
2022-08-21T20:24:59.440Z,3.83
2022-08-21T20:27:27.545Z,3.70
2022-08-21T20:30:01.783Z,3.97
2022-08-21T20:32:28.595Z,3.67
2022-08-21T20:34:55.222Z,4.20
2022-08-21T20:37:37.096Z,3.80
2022-08-21T20:40:12.560Z,4.03
2022-08-21T20:42:48.111Z,4.43
2022-08-21T20:45:22.384Z,3.60
2022-08-21T20:47:52.724Z,4.07
2022-08-21T20:50:24.899Z,4.30
2022-08-21T20:52:56.071Z,3.80
2022-08-21T20:55:29.109Z,4.13
2022-08-21T20:58:03.085Z,3.83
2022-08-21T21:00:34.853Z,3.97
2022-08-21T21:03:33.700Z,4.00
2022-08-21T21:06:10.622Z,4.43
2022-08-21T21:08:46.819Z,3.60
2022-08-21T21:11:34.584Z,4.20
2022-08-21T21:14:15.356Z,3.93
2022-08-21T21:16:51.401Z,3.93
2022-08-21T21:19:30.160Z,3.93
2022-08-21T21:22:13.228Z,4.57
2022-08-21T21:25:12.127Z,3.90
2022-08-21T21:30:36.170Z,3.97
2022-08-21T21:33:04.092Z,3.50
2022-08-21T21:36:11.632Z,3.90
2022-08-21T21:38:54.089Z,3.90
2022-08-21T21:41:34.144Z,3.47
2022-08-21T21:44:06.586Z,3.43
2022-08-21T21:46:55.129Z,3.80
2022-08-21T21:49:30.836Z,3.90
2022-08-21T21:52:23.902Z,3.83
2022-08-21T21:55:23.760Z,3.83
2022-08-21T21:58:16.787Z,3.87
2022-08-21T22:00:52.348Z,3.87
2022-08-21T22:03:29.396Z,3.80
2022-08-21T22:06:29.398Z,3.80
2022-08-21T22:09:03.039Z,3.47
2022-08-21T22:11:45.951Z,3.43
2022-08-21T22:14:15.881Z,3.73
2022-08-21T22:16:45.345Z,3.70
2022-08-21T22:19:24.203Z,3.53
2022-08-21T22:22:15.443Z,3.40
2022-08-21T22:24:47.869Z,3.40
2022-08-21T22:27:28.895Z,3.70
2022-08-21T22:30:02.492Z,3.90
2022-08-21T22:32:39.369Z,3.73
2022-08-21T22:35:25.886Z,4.20
2022-08-21T22:38:01.345Z,3.57
2022-08-21T22:40:35.152Z,3.13
2022-08-21T22:43:07.769Z,3.67
2022-08-21T22:45:57.345Z,3.60
2022-08-21T22:48:29.436Z,3.67
2022-08-21T22:51:09.892Z,4.57
2022-08-21T22:53:41.109Z,3.77
2022-08-21T22:56:08.923Z,3.53
2022-08-21T22:58:52.949Z,3.67
2022-08-21T23:01:22.516Z,4.00
2022-08-21T23:03:54.999Z,4.20
2022-08-21T23:06:29.397Z,4.27
2022-08-21T23:09:01.765Z,4.13
2022-08-21T23:11:42.697Z,3.93
2022-08-21T23:14:14.115Z,4.10
2022-08-21T23:17:01.349Z,4.03
2022-08-21T23:19:56.506Z,3.83
2022-08-21T23:22:47.331Z,3.60
2022-08-21T23:25:29.423Z,3.90
2022-08-21T23:28:14.173Z,4.10
2022-08-21T23:31:16.389Z,4.20
2022-08-21T23:34:09.789Z,3.77
2022-08-21T23:37:49.168Z,4.07
2022-08-21T23:43:54.426Z,4.03
2022-08-21T23:46:45.904Z,3.80
2022-08-21T23:49:28.108Z,4.00
2022-08-21T23:52:15.461Z,3.87
2022-08-21T23:55:06.713Z,4.13
2022-08-21T23:58:04.573Z,3.93
